Time;durP1;ratioP1;P1;durP2;ratioP2;P2;SDS_P1;SDS_P2;PMS_P1;PMS_P2;Temp;Humidity;BMP_temperature;BMP_pressure;BME280_temperature;BME280_humidity;BME280_pressure;Samples;Min_cycle;Max_cycle;Signal;HPM_P1;HPM_P2
2023/12/17 00:01:17;;;;;;;10.70;4.90;;;;;;;-145.18;100.00;46646.72;5075569;28;20036;-74
2023/12/17 00:03:43;;;;;;;13.37;5.30;;;;;;;-145.18;100.00;46646.72;5082420;28;20039;-73
2023/12/17 00:06:08;;;;;;;14.63;5.43;;;;;;;-145.18;100.00;46648.69;5085939;28;20043;-73
2023/12/17 00:08:34;;;;;;;12.77;4.70;;;;;;;-145.18;100.00;46648.69;5083816;28;20032;-73
2023/12/17 00:10:59;;;;;;;11.53;4.83;;;;;;;-145.18;100.00;46648.69;5074082;28;20029;-73
2023/12/17 00:13:25;;;;;;;12.17;4.60;;;;;;;-145.18;100.00;46648.69;5079729;28;20028;-74
2023/12/17 00:15:50;;;;;;;12.07;5.17;;;;;;;-145.18;100.00;46648.69;5072944;28;20033;-73
2023/12/17 00:18:16;;;;;;;16.63;4.57;;;;;;;-145.18;100.00;46644.78;5074288;28;20053;-74
2023/12/17 00:20:41;;;;;;;16.70;4.67;;;;;;;-145.18;100.00;46646.72;5073216;28;20028;-73
2023/12/17 00:23:07;;;;;;;15.27;5.50;;;;;;;-145.18;100.00;46648.69;5081050;28;20063;-73
2023/12/17 00:25:32;;;;;;;17.23;6.30;;;;;;;-145.18;100.00;46648.69;5088100;28;20080;-73
2023/12/17 00:27:58;;;;;;;16.20;7.27;;;;;;;-145.18;100.00;46646.72;5084425;28;20070;-73
2023/12/17 00:30:23;;;;;;;17.43;5.77;;;;;;;-145.18;100.00;46644.78;5081642;28;20036;-73
2023/12/17 00:32:49;;;;;;;17.20;5.20;;;;;;;-145.18;100.00;46646.72;5089256;28;20162;-73
2023/12/17 00:35:14;;;;;;;14.07;5.23;;;;;;;-145.18;100.00;46646.72;5078109;28;20452;-73
2023/12/17 00:37:39;;;;;;;13.23;5.33;;;;;;;-145.18;100.00;46652.59;5089421;28;20039;-74
2023/12/17 00:40:06;;;;;;;15.27;4.97;;;;;;;-145.18;100.00;46648.69;5096958;28;20028;-74
2023/12/17 00:42:31;;;;;;;13.20;4.93;;;;;;;-145.18;100.00;46644.78;5083390;28;20039;-74
2023/12/17 00:44:57;;;;;;;14.93;5.40;;;;;;;-145.18;100.00;46652.59;5078202;28;20469;-74
2023/12/17 00:47:22;;;;;;;19.47;5.73;;;;;;;-145.18;100.00;46654.53;5077889;28;20116;-74
2023/12/17 00:49:48;;;;;;;19.10;5.23;;;;;;;-145.18;100.00;46652.59;5095433;28;20037;-73
2023/12/17 00:52:13;;;;;;;15.53;5.80;;;;;;;-145.18;100.00;46650.63;5084338;28;20059;-74
2023/12/17 00:54:38;;;;;;;16.77;5.90;;;;;;;-145.18;100.00;46648.69;5076913;28;20481;-74
2023/12/17 00:57:04;;;;;;;14.00;6.53;;;;;;;-145.18;100.00;46654.53;5086722;28;20028;-73
2023/12/17 00:59:29;;;;;;;22.43;6.47;;;;;;;-145.18;100.00;46650.63;5077845;28;20617;-74
2023/12/17 01:01:55;;;;;;;20.33;7.40;;;;;;;-145.18;100.00;46652.59;5091165;28;20547;-74
2023/12/17 01:04:20;;;;;;;21.20;7.93;;;;;;;-145.18;100.00;46652.59;5084467;28;20031;-74
2023/12/17 01:06:46;;;;;;;21.97;8.63;;;;;;;-145.18;100.00;46650.63;5082979;28;20025;-74
2023/12/17 01:09:11;;;;;;;22.43;9.17;;;;;;;-145.18;100.00;46650.63;5087498;28;20028;-74
2023/12/17 01:11:37;;;;;;;23.93;8.90;;;;;;;-145.18;100.00;46652.59;5094912;28;20028;-73
2023/12/17 01:14:02;;;;;;;22.33;9.30;;;;;;;-145.18;100.00;46650.63;5085099;28;20035;-73
2023/12/17 01:16:29;;;;;;;25.27;10.40;;;;;;;-145.18;100.00;46652.59;5080148;28;20086;-73
2023/12/17 01:18:55;;;;;;;22.33;9.27;;;;;;;-145.18;100.00;46650.63;5087316;28;20063;-73
2023/12/17 01:21:20;;;;;;;26.30;9.20;;;;;;;-145.18;100.00;46648.69;5097464;28;20028;-74
2023/12/17 01:23:46;;;;;;;24.97;9.13;;;;;;;-145.18;100.00;46658.44;5083644;28;20163;-73
2023/12/17 01:26:18;;;;;;;33.40;8.07;;;;;;;-145.18;100.00;46656.50;5087688;28;20028;-74
2023/12/17 01:28:43;;;;;;;25.43;7.83;;;;;;;-145.18;100.00;46650.63;5079134;28;20108;-74
2023/12/17 01:31:09;;;;;;;22.87;7.47;;;;;;;-145.18;100.00;46658.44;5086575;28;20233;-73
2023/12/17 01:33:34;;;;;;;22.47;7.07;;;;;;;-145.18;100.00;46648.69;5091958;28;20055;-74
2023/12/17 01:35:59;;;;;;;21.30;7.13;;;;;;;-145.18;100.00;46656.50;5082264;28;20039;-74
2023/12/17 01:38:25;;;;;;;18.60;6.50;;;;;;;-145.18;100.00;46652.59;5089322;28;20531;-73
2023/12/17 01:40:50;;;;;;;27.70;6.87;;;;;;;-145.18;100.00;46652.59;5093116;28;20040;-74
2023/12/17 01:43:15;;;;;;;21.07;7.10;;;;;;;-145.18;100.00;46652.59;5082599;28;20036;-73
2023/12/17 01:45:41;;;;;;;20.67;6.73;;;;;;;-145.18;100.00;46654.53;5064551;28;20032;-74
2023/12/17 01:48:06;;;;;;;16.30;5.90;;;;;;;-145.18;100.00;46656.50;5088766;28;20070;-73
2023/12/17 01:50:32;;;;;;;28.97;7.10;;;;;;;-145.18;100.00;46652.59;5074444;28;20500;-73
2023/12/17 01:52:58;;;;;;;18.80;6.10;;;;;;;-145.18;100.00;46652.59;5085859;28;20473;-73
2023/12/17 01:55:24;;;;;;;17.40;5.27;;;;;;;-145.18;100.00;46658.44;5081453;28;20123;-74
2023/12/17 01:57:50;;;;;;;17.33;5.70;;;;;;;-145.18;100.00;46658.44;5085612;28;20436;-74
2023/12/17 02:00:16;;;;;;;24.80;6.20;;;;;;;-145.18;100.00;46660.41;5088317;28;20058;-73
2023/12/17 02:02:43;;;;;;;14.87;5.43;;;;;;;-145.18;100.00;46658.44;5075493;28;20039;-73
2023/12/17 02:05:08;;;;;;;24.97;6.27;;;;;;;-145.18;100.00;46654.53;5082431;28;20111;-74
2023/12/17 02:07:34;;;;;;;14.97;6.03;;;;;;;-145.18;100.00;46662.34;5076614;28;20448;-74
2023/12/17 02:09:59;;;;;;;10.97;4.53;;;;;;;-145.18;100.00;46658.44;5093512;28;20028;-73
2023/12/17 02:12:31;;;;;;;15.87;4.73;;;;;;;-145.18;100.00;46654.53;5080790;28;20028;-73
2023/12/17 02:14:57;;;;;;;21.10;4.50;;;;;;;-145.18;100.00;46658.44;5085796;28;20043;-73
2023/12/17 02:17:29;;;;;;;14.53;5.40;;;;;;;-145.18;100.00;46656.50;5090535;28;20064;-74
2023/12/17 02:19:54;;;;;;;13.80;4.40;;;;;;;-145.18;100.00;46658.44;5089559;28;20148;-73
2023/12/17 02:22:22;;;;;;;14.17;3.93;;;;;;;-145.18;100.00;46656.50;5081931;28;20091;-74
2023/12/17 02:24:48;;;;;;;9.43;3.87;;;;;;;-145.18;100.00;46662.34;5079838;28;20119;-74
2023/12/17 02:27:25;;;;;;;10.33;3.40;;;;;;;-145.18;100.00;46660.41;5086145;28;20119;-74
2023/12/17 02:29:52;;;;;;;15.57;4.10;;;;;;;-145.18;100.00;46660.41;5082570;28;20033;-74
2023/12/17 02:32:20;;;;;;;9.43;4.10;;;;;;;-145.18;100.00;46664.31;5073747;28;20062;-73
2023/12/17 02:34:46;;;;;;;10.67;4.00;;;;;;;-145.18;100.00;46662.34;5086984;28;20032;-73
2023/12/17 02:37:11;;;;;;;12.33;4.10;;;;;;;-145.18;100.00;46662.34;5086557;28;20611;-74
2023/12/17 02:39:36;;;;;;;9.67;4.30;;;;;;;-145.18;100.00;46664.31;5073066;28;20041;-73
2023/12/17 02:42:02;;;;;;;12.23;3.57;;;;;;;-145.18;100.00;46664.31;5079220;28;20078;-73
2023/12/17 02:44:27;;;;;;;12.83;3.80;;;;;;;-145.18;100.00;46672.13;5063544;28;20140;-73
2023/12/17 02:46:53;;;;;;;12.40;3.80;;;;;;;-145.18;100.00;46666.25;5083635;28;20107;-73
2023/12/17 02:49:19;;;;;;;11.23;3.87;;;;;;;-145.18;100.00;46662.34;5073721;28;20119;-73
2023/12/17 02:51:44;;;;;;;11.83;4.53;;;;;;;-145.18;100.00;46664.31;5086255;28;20123;-73
2023/12/17 02:54:09;;;;;;;12.47;5.03;;;;;;;-145.18;100.00;46666.25;5062509;28;20035;-73
2023/12/17 02:56:39;;;;;;;19.07;5.20;;;;;;;-145.18;100.00;46670.16;5071613;28;20056;-74
2023/12/17 02:59:08;;;;;;;10.90;4.13;;;;;;;-145.18;100.00;46660.41;5073683;28;20024;-74
2023/12/17 03:01:34;;;;;;;14.70;5.50;;;;;;;-145.18;100.00;46666.25;5078879;28;20032;-74
2023/12/17 03:03:59;;;;;;;11.73;4.77;;;;;;;-145.18;100.00;46660.41;5083589;28;20043;-74
2023/12/17 03:06:25;;;;;;;17.07;5.47;;;;;;;-145.18;100.00;46662.34;5078444;28;20035;-74
2023/12/17 03:08:50;;;;;;;12.43;4.57;;;;;;;-145.18;100.00;46662.34;5086574;28;20086;-74
2023/12/17 03:11:15;;;;;;;16.60;5.20;;;;;;;-145.18;100.00;46658.44;5077265;28;20032;-73
2023/12/17 03:13:41;;;;;;;16.40;4.93;;;;;;;-145.18;100.00;46660.41;5074828;28;20029;-73
2023/12/17 03:16:09;;;;;;;19.27;5.23;;;;;;;-145.18;100.00;46660.41;5092707;28;20039;-73
2023/12/17 03:18:35;;;;;;;16.93;5.80;;;;;;;-145.18;100.00;46660.41;5077121;28;20203;-73
2023/12/17 03:21:02;;;;;;;11.10;5.10;;;;;;;-145.18;100.00;46656.50;5076089;28;20484;-74
2023/12/17 03:23:27;;;;;;;17.13;4.93;;;;;;;-145.18;100.00;46652.59;5078810;28;20040;-74
2023/12/17 03:25:53;;;;;;;14.77;5.67;;;;;;;-145.18;100.00;46654.53;5079598;28;20028;-73
2023/12/17 03:28:18;;;;;;;11.93;3.27;;;;;;;-145.18;100.00;46656.50;5071005;28;20443;-74
2023/12/17 03:30:44;;;;;;;10.57;3.23;;;;;;;-145.18;100.00;46660.41;5071900;28;20115;-74
2023/12/17 03:33:10;;;;;;;9.27;3.70;;;;;;;-145.18;100.00;46654.53;5082244;28;20037;-74
2023/12/17 03:35:36;;;;;;;11.63;3.57;;;;;;;-145.18;100.00;46656.50;5071967;28;20472;-73
2023/12/17 03:38:01;;;;;;;17.27;4.20;;;;;;;-145.18;100.00;46654.53;5075453;28;20039;-74
2023/12/17 03:40:27;;;;;;;12.17;3.30;;;;;;;-145.18;100.00;46652.59;5092323;28;20035;-73
2023/12/17 03:42:52;;;;;;;10.40;4.67;;;;;;;-145.18;100.00;46652.59;5075855;28;20179;-73
2023/12/17 03:45:17;;;;;;;10.13;4.07;;;;;;;-145.18;100.00;46650.63;5074319;28;20047;-73
2023/12/17 03:47:47;;;;;;;15.90;5.17;;;;;;;-145.18;100.00;46654.53;5054456;28;20028;-74
2023/12/17 03:50:14;;;;;;;12.87;4.47;;;;;;;-145.18;100.00;46660.41;5081988;28;20761;-74
2023/12/17 03:52:40;;;;;;;16.00;5.37;;;;;;;-145.18;100.00;46650.63;5086185;28;20469;-74
2023/12/17 03:55:06;;;;;;;19.23;6.63;;;;;;;-145.18;100.00;46652.59;5082026;28;20035;-74
2023/12/17 03:57:31;;;;;;;13.47;5.80;;;;;;;-145.18;100.00;46654.53;5083487;28;20413;-74
2023/12/17 03:59:56;;;;;;;20.97;7.30;;;;;;;-145.18;100.00;46660.41;5082739;28;20468;-73
2023/12/17 04:02:22;;;;;;;18.53;6.67;;;;;;;-145.18;100.00;46650.63;5081121;28;20036;-74
2023/12/17 04:04:47;;;;;;;14.37;6.60;;;;;;;-145.18;100.00;46656.50;5077025;28;20480;-75
2023/12/17 04:07:13;;;;;;;24.37;7.10;;;;;;;-145.18;100.00;46658.44;5084175;28;20032;-74
2023/12/17 04:09:38;;;;;;;21.50;7.77;;;;;;;-145.18;100.00;46656.50;5077469;28;20039;-74
2023/12/17 04:12:05;;;;;;;25.60;9.43;;;;;;;-145.18;100.00;46656.50;5071261;28;20369;-74
2023/12/17 04:14:32;;;;;;;23.33;8.63;;;;;;;-145.18;100.00;46656.50;5090847;28;20028;-74
2023/12/17 04:16:57;;;;;;;17.93;9.03;;;;;;;-145.18;100.00;46658.44;5085166;28;20039;-74
2023/12/17 04:19:22;;;;;;;22.50;10.20;;;;;;;-145.18;100.00;46654.53;5081666;28;20264;-74
2023/12/17 04:21:48;;;;;;;25.80;11.17;;;;;;;-145.18;100.00;46658.44;5078683;28;20078;-74
2023/12/17 04:24:13;;;;;;;35.17;12.17;;;;;;;-145.18;100.00;46652.59;5078410;28;20044;-74
2023/12/17 04:26:39;;;;;;;37.37;13.10;;;;;;;-145.18;100.00;46650.63;5080362;28;20085;-74
2023/12/17 04:29:04;;;;;;;35.57;15.30;;;;;;;-145.18;100.00;46656.50;5080308;28;20539;-74
2023/12/17 04:31:29;;;;;;;42.47;18.67;;;;;;;-145.18;100.00;46656.50;5085619;28;20081;-74
2023/12/17 04:33:55;;;;;;;49.60;22.47;;;;;;;-145.18;100.00;46652.59;5087841;28;20031;-74
2023/12/17 04:36:20;;;;;;;54.10;21.87;;;;;;;-145.18;100.00;46656.50;5085956;28;20083;-74
2023/12/17 04:38:46;;;;;;;52.33;23.13;;;;;;;-145.18;100.00;46660.41;5082347;28;20032;-74
2023/12/17 04:41:12;;;;;;;49.93;21.27;;;;;;;-145.18;100.00;46658.44;5088586;28;20548;-74
2023/12/17 04:43:38;;;;;;;48.87;19.77;;;;;;;-145.18;100.00;46652.59;5085635;28;20128;-74
2023/12/17 04:46:03;;;;;;;41.63;19.13;;;;;;;-145.18;100.00;46656.50;5088060;28;20034;-74
2023/12/17 04:48:29;;;;;;;57.57;21.33;;;;;;;-145.18;100.00;46652.59;5100797;28;20040;-74
2023/12/17 04:50:54;;;;;;;54.17;21.17;;;;;;;-145.18;100.00;46656.50;5088716;28;20115;-74
2023/12/17 04:53:20;;;;;;;60.30;21.27;;;;;;;-145.18;100.00;46654.53;5086959;28;20054;-74
2023/12/17 04:55:45;;;;;;;50.67;19.90;;;;;;;-145.18;100.00;46656.50;5087878;28;20031;-73
2023/12/17 04:58:10;;;;;;;41.60;18.50;;;;;;;-145.18;100.00;46654.53;5072813;28;20099;-74
2023/12/17 05:00:36;;;;;;;52.37;19.93;;;;;;;-145.18;100.00;46654.53;5087036;28;20157;-74
2023/12/17 05:03:01;;;;;;;50.93;20.07;;;;;;;-145.18;100.00;46654.53;5079721;28;20038;-74
2023/12/17 05:05:26;;;;;;;52.00;20.10;;;;;;;-145.18;100.00;46656.50;5082765;28;20399;-74
2023/12/17 05:07:52;;;;;;;45.67;20.00;;;;;;;-145.18;100.00;46656.50;5077372;28;20032;-74
2023/12/17 05:10:17;;;;;;;48.77;18.67;;;;;;;-145.18;100.00;46656.50;5086665;28;20032;-74
2023/12/17 05:12:42;;;;;;;49.03;18.80;;;;;;;-145.18;100.00;46654.53;5076609;28;20116;-73
2023/12/17 05:15:08;;;;;;;49.10;19.60;;;;;;;-145.18;100.00;46650.63;5083856;28;20024;-74
2023/12/17 05:17:34;;;;;;;42.80;18.80;;;;;;;-145.18;100.00;46658.44;5082228;28;20084;-74
2023/12/17 05:19:59;;;;;;;45.97;18.33;;;;;;;-145.18;100.00;46656.50;5087848;28;20107;-74
2023/12/17 05:22:24;;;;;;;50.60;18.87;;;;;;;-145.18;100.00;46658.44;5080861;28;20510;-73
2023/12/17 05:24:50;;;;;;;47.33;19.30;;;;;;;-145.18;100.00;46660.41;5092304;28;20020;-73
2023/12/17 05:27:15;;;;;;;46.53;18.90;;;;;;;-145.18;100.00;46658.44;5090252;28;20448;-74
2023/12/17 05:29:41;;;;;;;47.70;18.93;;;;;;;-145.18;100.00;46658.44;5085095;28;20024;-74
2023/12/17 05:32:06;;;;;;;39.03;18.43;;;;;;;-145.18;100.00;46662.34;5085507;28;20076;-74
2023/12/17 05:34:32;;;;;;;38.23;16.83;;;;;;;-145.18;100.00;46654.53;5088483;28;20075;-73
2023/12/17 05:36:57;;;;;;;38.90;15.40;;;;;;;-145.18;100.00;46656.50;5080722;28;20127;-73
2023/12/17 05:39:22;;;;;;;30.87;15.43;;;;;;;-145.18;100.00;46662.34;5088624;28;20085;-73
2023/12/17 05:41:48;;;;;;;36.80;15.37;;;;;;;-145.18;100.00;46656.50;5092320;28;20040;-74
2023/12/17 05:44:13;;;;;;;39.63;14.13;;;;;;;-145.18;100.00;46658.44;5089670;28;20124;-73
2023/12/17 05:46:39;;;;;;;37.83;14.83;;;;;;;-145.18;100.00;46660.41;5105844;28;20035;-72
2023/12/17 05:49:04;;;;;;;29.47;14.50;;;;;;;-145.18;100.00;46660.41;5087708;28;20348;-73
2023/12/17 05:51:29;;;;;;;28.40;13.37;;;;;;;-145.18;100.00;46662.34;5085084;28;20031;-73
2023/12/17 05:53:55;;;;;;;31.53;12.40;;;;;;;-145.18;100.00;46662.34;5089420;28;20035;-74
2023/12/17 05:56:20;;;;;;;31.90;12.40;;;;;;;-145.18;100.00;46662.34;5081546;28;20089;-73
2023/12/17 05:58:45;;;;;;;25.40;12.43;;;;;;;-145.18;100.00;46664.31;5091082;28;20032;-74
2023/12/17 06:01:11;;;;;;;25.57;11.67;;;;;;;-145.18;100.00;46662.34;5078192;28;20032;-73
2023/12/17 06:03:36;;;;;;;25.60;12.30;;;;;;;-145.18;100.00;46668.22;5082397;28;20055;-74
2023/12/17 06:06:02;;;;;;;24.33;10.37;;;;;;;-145.18;100.00;46662.34;5093763;28;20032;-74
2023/12/17 06:08:27;;;;;;;19.13;10.57;;;;;;;-145.18;100.00;46662.34;5091103;28;20035;-74
2023/12/17 06:10:53;;;;;;;26.13;10.63;;;;;;;-145.18;100.00;46660.41;5083931;28;20138;-74
2023/12/17 06:13:18;;;;;;;21.23;10.37;;;;;;;-145.18;100.00;46662.34;5086202;28;20115;-73
2023/12/17 06:15:44;;;;;;;25.00;10.83;;;;;;;-145.18;100.00;46666.25;5091696;28;20103;-74
2023/12/17 06:18:09;;;;;;;22.83;10.80;;;;;;;-145.18;100.00;46658.44;5091639;28;20078;-74
2023/12/17 06:20:35;;;;;;;30.10;10.57;;;;;;;-145.18;100.00;46666.25;5087060;28;20098;-74
2023/12/17 06:23:01;;;;;;;21.73;10.63;;;;;;;-145.18;100.00;46662.34;5076140;28;20288;-74
2023/12/17 06:25:26;;;;;;;19.77;9.83;;;;;;;-145.18;100.00;46664.31;5086586;28;20032;-73
2023/12/17 06:27:52;;;;;;;28.90;11.33;;;;;;;-145.18;100.00;46664.31;5081293;28;20074;-73
2023/12/17 06:30:18;;;;;;;24.83;10.90;;;;;;;-145.18;100.00;46664.31;5074468;28;20090;-73
2023/12/17 06:32:44;;;;;;;22.70;11.63;;;;;;;-145.18;100.00;46670.16;5079434;28;20039;-73
2023/12/17 06:35:09;;;;;;;23.63;11.30;;;;;;;-145.18;100.00;46666.25;5078735;28;20112;-73
2023/12/17 06:37:35;;;;;;;22.60;12.10;;;;;;;-145.18;100.00;46674.06;5081402;28;20044;-73
2023/12/17 06:40:00;;;;;;;24.90;10.73;;;;;;;-145.18;100.00;46666.25;5079279;28;20503;-73
2023/12/17 06:42:26;;;;;;;29.70;11.70;;;;;;;-145.18;100.00;46672.13;5083585;28;20465;-74
2023/12/17 06:44:51;;;;;;;25.37;12.13;;;;;;;-145.18;100.00;46674.06;5078231;28;20493;-73
2023/12/17 06:47:18;;;;;;;29.63;15.00;;;;;;;-145.18;100.00;46676.03;5078729;28;20032;-73
2023/12/17 06:49:44;;;;;;;24.40;12.70;;;;;;;-145.18;100.00;46670.16;5072098;28;20036;-74
2023/12/17 06:52:10;;;;;;;28.27;14.10;;;;;;;-145.18;100.00;46674.06;5082630;28;20439;-74
2023/12/17 06:54:36;;;;;;;26.77;14.07;;;;;;;-145.18;100.00;46672.13;5083520;28;20040;-73
2023/12/17 06:57:01;;;;;;;26.23;13.50;;;;;;;-145.18;100.00;46666.25;5085190;28;20051;-73
2023/12/17 06:59:26;;;;;;;29.20;13.63;;;;;;;-145.18;100.00;46676.03;5073161;28;20028;-73
2023/12/17 07:01:52;;;;;;;29.80;14.07;;;;;;;-145.18;100.00;46676.03;5074233;28;20060;-73
2023/12/17 07:04:17;;;;;;;31.43;14.57;;;;;;;-145.18;100.00;46679.94;5090823;28;20416;-73
2023/12/17 07:06:42;;;;;;;31.90;14.23;;;;;;;-145.18;100.00;46681.88;5087735;28;20118;-73
2023/12/17 07:09:08;;;;;;;35.30;15.57;;;;;;;-145.18;100.00;46670.16;5086961;28;20032;-73
2023/12/17 07:11:34;;;;;;;39.20;16.07;;;;;;;-145.18;100.00;46672.13;5088587;28;20035;-73
2023/12/17 07:14:00;;;;;;;37.33;16.13;;;;;;;-145.18;100.00;46666.25;5088257;28;20110;-73
2023/12/17 07:16:28;;;;;;;37.00;16.23;;;;;;;-145.18;100.00;46664.31;5079220;28;20028;-74
2023/12/17 07:18:53;;;;;;;33.07;16.33;;;;;;;-145.18;100.00;46674.06;5079665;28;20080;-73
2023/12/17 07:21:19;;;;;;;35.77;16.50;;;;;;;-145.18;100.00;46674.06;5088774;28;20367;-74
2023/12/17 07:23:44;;;;;;;45.13;18.70;;;;;;;-145.18;100.00;46676.03;5086618;28;20480;-74
2023/12/17 07:26:09;;;;;;;43.13;16.67;;;;;;;-145.18;100.00;46666.25;5090386;28;20044;-74
2023/12/17 07:28:35;;;;;;;38.07;17.47;;;;;;;-145.18;100.00;46670.16;5088226;28;20032;-74
2023/12/17 07:31:00;;;;;;;34.97;16.50;;;;;;;-145.18;100.00;46668.22;5088954;28;20040;-74
2023/12/17 07:33:26;;;;;;;40.23;17.17;;;;;;;-145.18;100.00;46672.13;5090551;28;20480;-74
2023/12/17 07:35:51;;;;;;;39.40;17.63;;;;;;;-145.18;100.00;46668.22;5088225;28;20515;-75
2023/12/17 07:38:17;;;;;;;43.77;18.13;;;;;;;-145.18;100.00;46672.13;5087625;28;20036;-74
2023/12/17 07:40:43;;;;;;;43.40;18.03;;;;;;;-145.18;100.00;46672.13;5086440;28;20036;-74
2023/12/17 07:43:09;;;;;;;38.97;17.87;;;;;;;-145.18;100.00;46674.06;5086295;28;20403;-74
2023/12/17 07:45:34;;;;;;;48.10;18.47;;;;;;;-145.18;100.00;46668.22;5089496;28;20359;-75
2023/12/17 07:48:00;;;;;;;48.10;20.00;;;;;;;-145.18;100.00;46672.13;5091470;28;20063;-74
2023/12/17 07:50:25;;;;;;;51.30;21.10;;;;;;;-145.18;100.00;46677.97;5090169;28;20042;-74
2023/12/17 07:52:51;;;;;;;55.83;21.43;;;;;;;-145.18;100.00;46670.16;5089020;28;20030;-74
2023/12/17 07:55:16;;;;;;;49.43;21.67;;;;;;;-145.18;100.00;46664.31;5085914;28;20415;-68
2023/12/17 07:57:41;;;;;;;50.57;20.93;;;;;;;-145.18;100.00;46670.16;5085908;28;20106;-67
2023/12/17 08:00:08;;;;;;;46.10;20.23;;;;;;;-145.18;100.00;46672.13;5083427;28;20032;-67
2023/12/17 08:02:33;;;;;;;61.03;22.63;;;;;;;-145.18;100.00;46677.97;5070770;28;20032;-67
2023/12/17 08:04:59;;;;;;;44.37;20.20;;;;;;;-145.18;100.00;46672.13;5075809;28;20280;-67
2023/12/17 08:07:24;;;;;;;38.93;17.33;;;;;;;-145.18;100.00;46672.13;5073753;28;20056;-67
2023/12/17 08:09:50;;;;;;;44.30;18.33;;;;;;;-145.18;100.00;46674.06;5077169;28;20114;-67
2023/12/17 08:12:15;;;;;;;41.10;17.13;;;;;;;-145.18;100.00;46668.22;5084473;28;20113;-67
2023/12/17 08:14:41;;;;;;;44.47;17.83;;;;;;;-145.18;100.00;46681.88;5079715;28;20043;-67
2023/12/17 08:17:07;;;;;;;34.70;16.20;;;;;;;-145.18;100.00;46676.03;5081767;28;20075;-68
2023/12/17 08:19:32;;;;;;;36.47;16.30;;;;;;;-145.18;100.00;46672.13;5080976;28;20308;-67
2023/12/17 08:21:58;;;;;;;31.67;14.50;;;;;;;-145.18;100.00;46672.13;5080372;28;21106;-67
2023/12/17 08:24:23;;;;;;;34.47;15.03;;;;;;;-145.18;100.00;46674.06;5079875;28;20032;-67
2023/12/17 08:26:50;;;;;;;31.23;14.77;;;;;;;-145.18;100.00;46693.59;5071907;28;20027;-67
2023/12/17 08:29:15;;;;;;;30.63;14.90;;;;;;;-145.18;100.00;46683.84;5080710;28;20075;-68
2023/12/17 08:31:45;;;;;;;31.40;15.33;;;;;;;-145.18;100.00;46670.16;5072013;28;20289;-67
2023/12/17 08:34:11;;;;;;;34.40;15.60;;;;;;;-145.18;100.00;46674.06;5075151;28;20423;-67
2023/12/17 08:36:36;;;;;;;32.73;15.93;;;;;;;-145.18;100.00;46677.97;5075964;28;20737;-67
2023/12/17 08:39:05;;;;;;;34.07;15.77;;;;;;;-145.18;100.00;46677.97;5075873;28;20253;-68
2023/12/17 08:41:31;;;;;;;33.27;15.87;;;;;;;-145.18;100.00;46681.88;5076871;28;20067;-67
2023/12/17 08:43:56;;;;;;;39.20;17.00;;;;;;;-145.18;100.00;46677.97;5071744;28;20348;-67
2023/12/17 08:46:22;;;;;;;37.63;16.03;;;;;;;-145.18;100.00;46674.06;5073962;28;20334;-67
2023/12/17 08:48:47;;;;;;;41.40;18.17;;;;;;;-145.18;100.00;46666.25;5077128;28;20032;-67
2023/12/17 08:51:12;;;;;;;37.63;17.53;;;;;;;-145.18;100.00;46670.16;5082465;28;20531;-67
2023/12/17 08:53:39;;;;;;;44.73;17.93;;;;;;;-145.18;100.00;46674.06;5087810;28;20039;-67
2023/12/17 08:56:08;;;;;;;44.30;17.93;;;;;;;-145.18;100.00;46676.03;5075799;28;20415;-67
2023/12/17 08:58:33;;;;;;;38.57;16.87;;;;;;;-145.18;100.00;46681.88;5088236;28;20800;-68
2023/12/17 09:00:58;;;;;;;46.83;19.00;;;;;;;-145.18;100.00;46674.06;5084950;28;20831;-67
2023/12/17 09:03:24;;;;;;;45.07;19.07;;;;;;;-145.18;100.00;46672.13;5079045;28;20487;-67
2023/12/17 09:05:50;;;;;;;48.83;19.23;;;;;;;-145.18;100.00;46685.78;5081798;28;20040;-74
2023/12/17 09:08:15;;;;;;;47.80;19.40;;;;;;;-145.18;100.00;46668.22;5075732;28;20206;-74
2023/12/17 09:10:40;;;;;;;44.43;18.33;;;;;;;-145.18;100.00;46670.16;5077034;28;20020;-74
2023/12/17 09:13:09;;;;;;;42.60;19.07;;;;;;;-145.18;100.00;46672.13;5093416;28;20041;-74
2023/12/17 09:15:35;;;;;;;41.53;18.17;;;;;;;-145.18;100.00;46672.13;5086883;28;20048;-74
2023/12/17 09:18:00;;;;;;;38.53;16.23;;;;;;;-145.18;100.00;46672.13;5078245;28;20358;-74
2023/12/17 09:20:26;;;;;;;43.17;18.07;;;;;;;-145.18;100.00;46677.97;5082942;28;20394;-74
2023/12/17 09:22:52;;;;;;;47.73;19.53;;;;;;;-145.18;100.00;46674.06;5087904;28;20040;-74
2023/12/17 09:25:18;;;;;;;49.73;20.00;;;;;;;-145.18;100.00;46679.94;5074677;28;20400;-74
2023/12/17 09:27:43;;;;;;;46.77;19.53;;;;;;;-145.18;100.00;46672.13;5084028;28;20284;-75
2023/12/17 09:30:09;;;;;;;51.03;22.27;;;;;;;-145.18;100.00;46674.06;5087788;28;20465;-74
2023/12/17 09:32:35;;;;;;;50.63;20.17;;;;;;;-145.18;100.00;46676.03;5057139;28;20130;-74
2023/12/17 09:35:01;;;;;;;52.90;20.77;;;;;;;-145.18;100.00;46676.03;5074483;28;20135;-75
2023/12/17 09:37:26;;;;;;;55.50;21.93;;;;;;;-145.18;100.00;46670.16;5083073;28;20348;-74
2023/12/17 09:39:53;;;;;;;52.43;20.03;;;;;;;-145.18;100.00;46677.97;5085307;28;20071;-75
2023/12/17 09:42:22;;;;;;;51.73;20.83;;;;;;;-145.18;100.00;46668.22;5075069;28;20036;-74
2023/12/17 09:44:47;;;;;;;55.43;22.40;;;;;;;-145.18;100.00;46674.06;5074667;28;20269;-74
2023/12/17 09:47:13;;;;;;;61.47;23.50;;;;;;;-145.18;100.00;46670.16;5075637;28;20277;-74
2023/12/17 09:49:38;;;;;;;60.20;22.57;;;;;;;-145.18;100.00;46672.13;5088557;28;20055;-74
2023/12/17 09:52:11;;;;;;;62.07;24.20;;;;;;;-145.18;100.00;46670.16;5090147;28;20496;-74
2023/12/17 09:54:37;;;;;;;64.87;24.43;;;;;;;-145.18;100.00;46672.13;5076177;28;20465;-74
2023/12/17 09:57:07;;;;;;;67.20;25.77;;;;;;;-145.18;100.00;46668.22;5075452;28;20725;-75
2023/12/17 09:59:32;;;;;;;57.70;22.83;;;;;;;-145.18;100.00;46672.13;5079733;28;20419;-74
2023/12/17 10:01:58;;;;;;;53.17;22.27;;;;;;;-145.18;100.00;46668.22;5085577;28;20366;-75
2023/12/17 10:04:24;;;;;;;58.70;22.77;;;;;;;-145.18;100.00;46670.16;5094038;28;20032;-75
2023/12/17 10:06:50;;;;;;;54.77;22.73;;;;;;;-145.18;100.00;46668.22;5082697;28;20028;-74
2023/12/17 10:09:16;;;;;;;52.63;21.43;;;;;;;-145.18;100.00;46670.16;5091937;28;20303;-74
2023/12/17 10:11:41;;;;;;;55.30;22.73;;;;;;;-145.18;100.00;46670.16;5086366;28;20266;-74
2023/12/17 10:14:23;;;;;;;59.33;24.60;;;;;;;-145.18;100.00;46674.06;5093212;28;20063;-74
2023/12/17 10:16:52;;;;;;;62.37;23.00;;;;;;;-145.18;100.00;46674.06;5078219;28;20025;-67
2023/12/17 10:19:18;;;;;;;50.93;21.93;;;;;;;-145.18;100.00;46676.03;5073497;28;20292;-67
2023/12/17 10:21:44;;;;;;;55.73;23.87;;;;;;;-145.18;100.00;46681.88;5073690;28;20277;-67
2023/12/17 10:24:10;;;;;;;58.63;25.27;;;;;;;-145.18;100.00;46683.84;5074093;28;20028;-67
2023/12/17 10:26:49;;;;;;;63.63;25.73;;;;;;;-145.18;100.00;46683.84;5073980;28;20352;-67
2023/12/17 10:29:18;;;;;;;62.80;26.03;;;;;;;-145.18;100.00;46679.94;5084771;28;20036;-67
2023/12/17 10:31:45;;;;;;;47.60;22.43;;;;;;;-145.18;100.00;46683.84;5087820;28;20267;-67
2023/12/17 10:34:18;;;;;;;49.20;22.37;;;;;;;-145.18;100.00;46683.84;5078132;28;20263;-68
2023/12/17 10:36:47;;;;;;;51.63;23.53;;;;;;;-145.18;100.00;46681.88;5084361;28;20269;-67
2023/12/17 10:39:14;;;;;;;48.60;22.50;;;;;;;-145.18;100.00;46687.75;5085891;28;20269;-67
2023/12/17 10:41:41;;;;;;;51.53;22.30;;;;;;;-145.18;100.00;46683.84;5073326;28;20316;-67
2023/12/17 10:44:12;;;;;;;41.53;20.30;;;;;;;-145.18;100.00;46685.78;5074387;28;20268;-67
2023/12/17 10:46:45;;;;;;;52.53;22.30;;;;;;;-145.18;100.00;46687.75;5073341;28;20265;-67
2023/12/17 10:49:11;;;;;;;43.30;20.83;;;;;;;-145.18;100.00;46685.78;5073507;28;20258;-67
2023/12/17 10:51:39;;;;;;;50.83;21.00;;;;;;;-145.18;100.00;46685.78;5075058;28;20407;-67